createdAt,value
2019-01-05T00:00:30.603Z,76.27
2019-01-05T00:01:27.825Z,76.41
2019-01-05T00:02:18.378Z,76.52
2019-01-05T00:03:11.700Z,76.18
2019-01-05T00:04:04.487Z,76.25
2019-01-05T00:05:11.208Z,76.24
2019-01-05T00:06:04.335Z,76.10
2019-01-05T00:06:57.989Z,76.72
2019-01-05T00:07:46.617Z,76.54
2019-01-05T00:08:41.266Z,76.42
2019-01-05T00:09:41.711Z,76.72
2019-01-05T00:10:34.890Z,76.72
2019-01-05T00:11:44.556Z,76.18
2019-01-05T00:12:45.030Z,76.03
2019-01-05T00:13:51.350Z,76.19
2019-01-05T00:14:44.392Z,76.26
2019-01-05T00:15:38.414Z,76.34
2019-01-05T00:16:45.415Z,76.06
2019-01-05T00:17:45.926Z,76.19
2019-01-05T00:18:40.844Z,76.24
2019-01-05T00:19:32.585Z,76.69
2019-01-05T00:20:25.897Z,76.90
2019-01-05T00:21:25.612Z,76.85
2019-01-05T00:22:22.133Z,76.77
2019-01-05T00:23:17.223Z,76.77
2019-01-05T00:24:17.756Z,76.90
2019-01-05T00:25:10.953Z,76.78
2019-01-05T00:26:03.865Z,76.58
2019-01-05T00:27:08.271Z,76.62
2019-01-05T00:28:20.703Z,76.65
2019-01-05T00:29:19.086Z,76.55
2019-01-05T00:30:22.569Z,76.74
2019-01-05T00:31:20.908Z,76.86
2019-01-05T00:32:49.880Z,76.86
2019-01-05T00:33:45.615Z,76.66
2019-01-05T00:34:54.694Z,76.22
2019-01-05T00:36:33.167Z,76.29
2019-01-05T00:37:27.392Z,76.62
2019-01-05T00:38:21.784Z,76.62
2019-01-05T00:39:14.701Z,76.43
2019-01-05T00:40:17.158Z,76.17
2019-01-05T00:41:10.173Z,76.31
2019-01-05T00:42:02.712Z,76.22
2019-01-05T00:42:56.062Z,76.13
2019-01-05T00:43:58.094Z,76.34
2019-01-05T00:45:03.810Z,76.38
2019-01-05T00:45:57.883Z,76.42
2019-01-05T00:47:06.219Z,76.24
2019-01-05T00:48:01.502Z,76.11
2019-01-05T00:49:00.899Z,76.03
2019-01-05T00:49:54.488Z,75.58
2019-01-05T00:50:50.402Z,75.80
2019-01-05T00:51:45.873Z,75.82
2019-01-05T00:52:43.418Z,76.01
2019-01-05T00:53:36.979Z,75.52
2019-01-05T00:54:36.564Z,75.15
2019-01-05T00:55:29.844Z,75.10
2019-01-05T00:56:31.230Z,75.23
2019-01-05T00:57:27.635Z,75.39
2019-01-05T00:58:25.795Z,75.73
2019-01-05T00:59:18.963Z,75.59
2019-01-05T01:00:16.563Z,75.56
2019-01-05T01:01:19.923Z,75.81
2019-01-05T01:02:13.555Z,75.62
2019-01-05T01:03:13.791Z,76.09
2019-01-05T01:04:20.017Z,75.93
2019-01-05T01:05:12.168Z,76.09
2019-01-05T01:05:58.121Z,76.30
2019-01-05T01:06:50.910Z,76.17
2019-01-05T01:07:44.238Z,76.32
2019-01-05T01:08:32.892Z,76.41
2019-01-05T01:09:22.895Z,76.51
2019-01-05T01:10:26.485Z,76.58
2019-01-05T01:11:30.931Z,76.68
2019-01-05T01:12:24.162Z,76.78
2019-01-05T01:13:18.566Z,76.54
2019-01-05T01:14:12.628Z,76.92
2019-01-05T01:15:05.914Z,76.96
2019-01-05T01:16:00.426Z,76.75
2019-01-05T01:16:53.958Z,77.08
2019-01-05T01:17:44.572Z,77.15
2019-01-05T01:18:42.852Z,77.30
2019-01-05T01:19:36.131Z,77.24
2019-01-05T01:20:29.539Z,77.59
2019-01-05T01:21:26.842Z,77.72
2019-01-05T01:22:39.896Z,77.79
2019-01-05T01:23:37.664Z,78.17
2019-01-05T01:24:30.421Z,78.49
2019-01-05T01:25:29.938Z,78.95
2019-01-05T01:26:36.908Z,78.97
2019-01-05T01:27:34.621Z,79.27
2019-01-05T01:28:28.236Z,79.80
2019-01-05T01:29:25.425Z,79.91
2019-01-05T01:30:25.328Z,80.24
2019-01-05T01:31:23.010Z,80.56
2019-01-05T01:32:16.394Z,80.84
2019-01-05T01:33:17.691Z,81.03
2019-01-05T01:34:18.080Z,81.13
2019-01-05T01:35:11.570Z,81.12
2019-01-05T01:36:07.576Z,81.43
2019-01-05T01:36:58.187Z,81.63
2019-01-05T01:38:36.066Z,81.73
2019-01-05T01:39:31.997Z,81.97
2019-01-05T01:40:33.638Z,82.23
2019-01-05T01:41:45.141Z,82.38
2019-01-05T01:42:55.455Z,82.58
2019-01-05T01:43:59.000Z,82.66
2019-01-05T01:44:59.994Z,82.86
2019-01-05T01:46:09.686Z,82.74
2019-01-05T01:47:10.439Z,82.84
2019-01-05T01:48:14.959Z,82.94
2019-01-05T01:49:13.224Z,82.88
2019-01-05T01:50:06.297Z,82.93
2019-01-05T01:51:01.094Z,82.74
2019-01-05T01:51:55.624Z,82.53
2019-01-05T01:52:51.747Z,82.62
2019-01-05T01:53:45.210Z,82.57
2019-01-05T01:54:38.511Z,82.66
2019-01-05T01:55:30.307Z,82.69
2019-01-05T01:56:24.478Z,82.65
2019-01-05T01:57:23.653Z,82.34
2019-01-05T01:58:29.770Z,82.27
2019-01-05T01:59:42.436Z,82.31
2019-01-05T02:00:43.253Z,82.21
2019-01-05T02:01:52.942Z,82.10
2019-01-05T02:02:51.942Z,82.17
2019-01-05T02:03:49.395Z,82.15
2019-01-05T02:04:50.197Z,82.23
2019-01-05T02:05:45.474Z,82.24
2019-01-05T02:06:47.342Z,82.05
2019-01-05T02:07:41.753Z,81.79
2019-01-05T02:08:44.653Z,81.72
2019-01-05T02:09:43.467Z,81.50
2019-01-05T02:10:42.755Z,81.41
2019-01-05T02:11:39.718Z,81.16
2019-01-05T02:12:25.856Z,80.67
2019-01-05T02:13:23.823Z,80.54
2019-01-05T02:14:35.601Z,80.34
2019-01-05T02:15:30.960Z,79.89
2019-01-05T02:16:34.674Z,79.62
2019-01-05T02:17:51.259Z,79.44
2019-01-05T02:19:07.411Z,79.39
2019-01-05T02:20:13.870Z,79.42
2019-01-05T02:21:30.605Z,79.37
2019-01-05T02:22:46.382Z,78.92
2019-01-05T02:24:27.304Z,78.92
2019-01-05T02:25:51.545Z,78.54
2019-01-05T02:27:21.922Z,78.52
2019-01-05T02:28:49.586Z,78.31
2019-01-05T02:30:31.630Z,78.36
2019-01-05T02:31:46.576Z,77.97
2019-01-05T02:33:05.631Z,78.27
2019-01-05T02:34:15.255Z,78.12
2019-01-05T02:35:39.442Z,77.66
2019-01-05T02:37:11.653Z,77.77
2019-01-05T02:38:36.086Z,77.97
2019-01-05T02:39:59.745Z,77.98
2019-01-05T02:41:19.402Z,78.12
2019-01-05T02:43:08.781Z,78.12
2019-01-05T02:45:11.172Z,78.29
2019-01-05T02:46:56.305Z,78.19
2019-01-05T02:48:29.386Z,78.10
2019-01-05T02:50:00.221Z,78.11
2019-01-05T02:51:31.230Z,77.76
2019-01-05T02:53:08.557Z,77.57
2019-01-05T02:54:41.082Z,77.13
2019-01-05T02:56:16.336Z,77.21
2019-01-05T02:57:58.715Z,77.21
2019-01-05T02:59:31.980Z,77.31
2019-01-05T03:01:09.265Z,77.10
2019-01-05T03:02:34.260Z,76.49
2019-01-05T03:04:16.893Z,76.56
2019-01-05T03:05:40.390Z,76.40
2019-01-05T03:07:06.097Z,76.59
2019-01-05T03:08:59.141Z,76.61
2019-01-05T03:10:28.761Z,76.77
2019-01-05T03:12:30.931Z,77.09
2019-01-05T03:14:02.869Z,76.93
2019-01-05T03:15:27.255Z,77.24
2019-01-05T03:16:45.886Z,77.12
2019-01-05T03:18:13.731Z,77.07
2019-01-05T03:19:57.316Z,77.59
2019-01-05T03:21:48.204Z,77.67
2019-01-05T03:23:29.570Z,77.62
2019-01-05T03:24:45.110Z,78.33
2019-01-05T03:26:47.979Z,78.82
2019-01-05T03:28:24.963Z,78.90
2019-01-05T03:29:51.138Z,78.80
2019-01-05T03:31:19.181Z,79.55
2019-01-05T03:32:55.947Z,79.86
2019-01-05T03:34:22.164Z,80.47
2019-01-05T03:36:18.966Z,80.76
2019-01-05T03:38:00.566Z,81.18
2019-01-05T03:39:14.174Z,81.50
2019-01-05T03:40:38.920Z,81.38
2019-01-05T03:41:56.754Z,81.77
2019-01-05T03:43:22.653Z,82.04
2019-01-05T03:44:58.040Z,82.10
2019-01-05T03:46:49.212Z,82.13
2019-01-05T03:48:29.180Z,82.37
2019-01-05T03:49:59.035Z,82.43
2019-01-05T03:51:57.000Z,82.46
2019-01-05T03:53:41.432Z,82.80
2019-01-05T03:55:09.428Z,82.76
2019-01-05T03:56:43.559Z,82.97
2019-01-05T03:58:26.386Z,82.73
2019-01-05T04:00:34.831Z,82.81
2019-01-05T04:02:00.512Z,82.72
2019-01-05T04:03:49.032Z,83.00
2019-01-05T04:05:24.930Z,82.98
2019-01-05T04:07:01.469Z,83.08
2019-01-05T04:08:26.361Z,83.29
2019-01-05T04:09:49.121Z,83.50
2019-01-05T04:11:21.525Z,83.46
2019-01-05T04:13:10.903Z,83.30
2019-01-05T04:14:43.169Z,83.44
2019-01-05T04:16:09.807Z,83.47
2019-01-05T04:17:28.856Z,83.37
2019-01-05T04:19:22.102Z,83.54
2019-01-05T04:21:06.563Z,83.58
2019-01-05T04:22:39.949Z,83.82
2019-01-05T04:24:19.286Z,83.98
2019-01-05T04:26:19.949Z,83.78
2019-01-05T04:27:56.447Z,83.86
2019-01-05T04:29:42.057Z,83.95
2019-01-05T04:31:39.220Z,84.07
2019-01-05T04:33:14.733Z,84.16
2019-01-05T04:34:43.105Z,84.25
2019-01-05T04:36:22.345Z,84.25
2019-01-05T04:37:57.133Z,84.28
2019-01-05T04:39:32.819Z,84.26
2019-01-05T04:41:01.797Z,84.14
2019-01-05T04:42:44.626Z,84.26
2019-01-05T04:44:11.366Z,84.24
2019-01-05T04:45:58.392Z,84.25
2019-01-05T04:47:31.058Z,84.34
2019-01-05T04:48:57.989Z,84.00
2019-01-05T04:50:43.440Z,84.03
2019-01-05T04:52:19.604Z,84.26
2019-01-05T04:53:54.677Z,84.43
2019-01-05T04:55:41.759Z,84.58
2019-01-05T04:57:33.397Z,84.53
2019-01-05T04:59:07.957Z,84.50
2019-01-05T05:00:52.020Z,84.63
2019-01-05T05:02:17.294Z,84.75
2019-01-05T05:03:47.184Z,84.64
2019-01-05T05:05:23.672Z,84.50
2019-01-05T05:06:55.655Z,84.55
2019-01-05T05:08:38.899Z,84.63
2019-01-05T05:10:20.788Z,84.66
2019-01-05T05:12:05.185Z,84.77
2019-01-05T05:13:39.447Z,84.84
2019-01-05T05:15:15.689Z,84.87
2019-01-05T05:16:47.728Z,84.88
2019-01-05T05:18:12.572Z,84.67
2019-01-05T05:19:41.660Z,84.54
2019-01-05T05:21:00.901Z,84.59
2019-01-05T05:22:54.033Z,84.56
2019-01-05T05:24:37.153Z,84.52
2019-01-05T05:26:06.687Z,84.48
2019-01-05T05:28:03.524Z,84.38
2019-01-05T05:29:55.976Z,84.47
2019-01-05T05:31:40.618Z,84.54
2019-01-05T05:33:37.267Z,84.34
2019-01-05T05:35:04.802Z,84.13
2019-01-05T05:36:35.188Z,83.84
2019-01-05T05:38:04.517Z,83.73
2019-01-05T05:39:43.354Z,83.66
2019-01-05T05:41:16.415Z,83.67
2019-01-05T05:42:55.657Z,83.70
2019-01-05T05:44:24.815Z,83.80
2019-01-05T05:46:16.447Z,83.79
2019-01-05T05:47:41.660Z,83.62
2019-01-05T05:49:06.765Z,83.52
2019-01-05T05:50:39.185Z,83.49
2019-01-05T05:52:18.256Z,83.67
2019-01-05T05:54:03.298Z,83.39
2019-01-05T05:55:27.141Z,83.38
2019-01-05T05:56:43.611Z,83.36
2019-01-05T05:58:20.782Z,83.53
2019-01-05T05:59:57.606Z,83.41
2019-01-05T06:01:42.950Z,83.07
2019-01-05T06:03:17.065Z,82.94
2019-01-05T06:04:50.868Z,82.95
2019-01-05T06:06:15.060Z,83.20
2019-01-05T06:07:43.913Z,83.37
2019-01-05T06:09:37.239Z,83.68
2019-01-05T06:11:05.046Z,83.68
2019-01-05T06:12:51.919Z,83.69
2019-01-05T06:14:41.826Z,83.80
2019-01-05T06:15:56.100Z,83.75
2019-01-05T06:17:09.135Z,83.78
2019-01-05T06:18:46.239Z,83.89
2019-01-05T06:20:19.886Z,83.91
2019-01-05T06:21:55.810Z,83.71
2019-01-05T06:23:23.692Z,83.70
2019-01-05T06:24:51.261Z,83.91
2019-01-05T06:26:41.018Z,84.07
2019-01-05T06:28:14.979Z,84.29
2019-01-05T06:29:45.879Z,84.36
2019-01-05T06:31:33.225Z,84.32
2019-01-05T06:33:20.931Z,84.29
2019-01-05T06:35:04.340Z,84.13
2019-01-05T06:36:38.551Z,83.92
2019-01-05T06:37:47.324Z,83.81
2019-01-05T06:39:35.338Z,83.67
2019-01-05T06:41:17.487Z,83.81
2019-01-05T06:42:54.509Z,83.73
2019-01-05T06:45:01.727Z,83.69
2019-01-05T06:46:32.702Z,83.67
2019-01-05T06:48:28.373Z,83.68
2019-01-05T06:50:06.321Z,83.90
2019-01-05T06:51:42.071Z,84.15
2019-01-05T06:53:34.792Z,84.00
2019-01-05T06:55:11.643Z,84.07
2019-01-05T06:57:16.707Z,84.11
2019-01-05T06:58:54.404Z,84.09
2019-01-05T07:00:43.632Z,84.08
2019-01-05T07:02:07.013Z,83.79
2019-01-05T07:03:48.406Z,83.81
2019-01-05T07:05:34.046Z,83.68
2019-01-05T07:07:12.680Z,83.78
2019-01-05T07:08:44.888Z,83.87
2019-01-05T07:10:08.537Z,83.98
2019-01-05T07:11:37.419Z,84.01
2019-01-05T07:13:33.645Z,84.24
2019-01-05T07:15:23.906Z,84.33
2019-01-05T07:16:57.875Z,84.43
2019-01-05T07:18:30.629Z,84.65
2019-01-05T07:19:56.879Z,84.67
2019-01-05T07:21:30.568Z,84.89
2019-01-05T07:23:02.384Z,85.01
2019-01-05T07:24:40.849Z,85.07
2019-01-05T07:26:20.762Z,84.93
2019-01-05T07:27:56.363Z,85.02
2019-01-05T07:29:37.994Z,85.08
2019-01-05T07:31:10.015Z,85.07
2019-01-05T07:32:29.491Z,84.75
2019-01-05T07:34:06.937Z,84.71
2019-01-05T07:35:36.225Z,84.75
2019-01-05T07:37:14.796Z,84.90
2019-01-05T07:39:07.059Z,85.08
2019-01-05T07:40:56.074Z,85.06
2019-01-05T07:42:24.917Z,84.99
2019-01-05T07:43:49.242Z,85.09
2019-01-05T07:45:44.334Z,85.12
2019-01-05T07:46:51.276Z,85.23
2019-01-05T07:48:50.435Z,85.45
2019-01-05T07:50:37.647Z,85.37
2019-01-05T07:52:20.739Z,85.15
2019-01-05T07:54:21.268Z,85.08
2019-01-05T07:56:20.201Z,85.16
2019-01-05T07:57:57.351Z,85.14
2019-01-05T07:59:39.877Z,85.06
2019-01-05T08:01:20.521Z,84.94
2019-01-05T08:03:02.218Z,85.01
2019-01-05T08:04:57.917Z,84.88
2019-01-05T08:07:03.861Z,84.92
2019-01-05T08:08:39.423Z,84.68
2019-01-05T08:10:31.041Z,84.80
2019-01-05T08:11:57.507Z,85.02
2019-01-05T08:13:44.143Z,85.05
2019-01-05T08:15:35.807Z,85.15
2019-01-05T08:17:05.484Z,85.20
2019-01-05T08:18:34.427Z,85.15
2019-01-05T08:20:18.817Z,85.08
2019-01-05T08:22:17.686Z,85.06
2019-01-05T08:23:34.765Z,84.92
2019-01-05T08:25:23.397Z,84.80
2019-01-05T08:27:07.679Z,84.74
2019-01-05T08:28:37.547Z,84.81
2019-01-05T08:30:10.119Z,84.85
2019-01-05T08:31:38.572Z,84.96
2019-01-05T08:33:35.176Z,84.94
2019-01-05T08:35:24.745Z,85.04
2019-01-05T08:37:02.865Z,85.07
2019-01-05T08:38:41.461Z,85.08
2019-01-05T08:40:14.527Z,85.12
2019-01-05T08:42:13.647Z,85.07
2019-01-05T08:43:53.645Z,85.08
2019-01-05T08:45:21.668Z,85.07
2019-01-05T08:46:50.216Z,84.95
2019-01-05T08:48:51.074Z,84.67
2019-01-05T08:50:31.694Z,84.67
2019-01-05T08:51:49.957Z,84.83
2019-01-05T08:53:31.430Z,84.97
2019-01-05T08:55:09.018Z,85.04
2019-01-05T08:56:50.623Z,85.18
2019-01-05T08:58:36.116Z,85.21
2019-01-05T09:00:10.535Z,85.20
2019-01-05T09:02:03.086Z,85.22
2019-01-05T09:03:22.734Z,85.26
2019-01-05T09:05:21.933Z,85.21
2019-01-05T09:07:00.133Z,85.21
2019-01-05T09:08:37.780Z,85.11
2019-01-05T09:10:00.200Z,85.14
2019-01-05T09:11:35.298Z,85.14
2019-01-05T09:13:07.260Z,85.10
2019-01-05T09:15:04.403Z,85.07
2019-01-05T09:16:44.096Z,84.96
2019-01-05T09:18:21.355Z,84.87
2019-01-05T09:19:53.772Z,84.82
2019-01-05T09:21:28.196Z,84.98
2019-01-05T09:23:09.385Z,85.06
2019-01-05T09:24:58.321Z,84.96
2019-01-05T09:26:36.127Z,85.19
2019-01-05T09:28:13.156Z,85.17
2019-01-05T09:29:53.122Z,85.23
2019-01-05T09:31:15.023Z,85.25
2019-01-05T09:32:43.538Z,85.20
2019-01-05T09:34:16.801Z,85.08
2019-01-05T09:36:02.398Z,85.05
2019-01-05T09:37:41.703Z,85.00
2019-01-05T09:39:17.323Z,84.80
2019-01-05T09:41:03.522Z,84.89
2019-01-05T09:42:46.264Z,84.95
2019-01-05T09:44:30.512Z,85.01
2019-01-05T09:46:01.318Z,84.92
2019-01-05T09:47:22.722Z,85.11
2019-01-05T09:49:18.618Z,85.17
2019-01-05T09:50:51.401Z,85.02
2019-01-05T09:52:16.160Z,85.08
2019-01-05T09:53:53.173Z,85.11
2019-01-05T09:55:22.242Z,84.96
2019-01-05T09:56:59.264Z,84.65
2019-01-05T09:58:49.115Z,84.76
2019-01-05T10:00:24.297Z,84.64
2019-01-05T10:02:00.767Z,84.58
2019-01-05T10:03:40.238Z,84.78
2019-01-05T10:05:13.015Z,84.62
2019-01-05T10:06:41.648Z,84.43
2019-01-05T10:08:33.894Z,84.42
2019-01-05T10:09:59.600Z,84.41
2019-01-05T10:11:31.064Z,84.33
2019-01-05T10:13:18.868Z,84.26
2019-01-05T10:15:12.614Z,83.90
2019-01-05T10:16:51.984Z,83.85
2019-01-05T10:18:15.258Z,83.78
2019-01-05T10:19:52.501Z,83.50
2019-01-05T10:21:22.935Z,83.37
2019-01-05T10:23:23.591Z,83.33
2019-01-05T10:24:54.165Z,83.37
2019-01-05T10:26:23.604Z,83.39
2019-01-05T10:28:19.601Z,83.36
2019-01-05T10:29:51.696Z,83.34
2019-01-05T10:31:29.094Z,83.31
2019-01-05T10:32:50.222Z,83.48
2019-01-05T10:34:31.430Z,83.57
2019-01-05T10:36:14.067Z,83.57
2019-01-05T10:38:08.977Z,83.64
2019-01-05T10:39:37.325Z,83.65
2019-01-05T10:41:16.694Z,83.20
2019-01-05T10:43:08.494Z,82.65
2019-01-05T10:44:53.111Z,82.46
2019-01-05T10:46:21.639Z,82.32
2019-01-05T10:47:45.560Z,82.49
2019-01-05T10:49:39.420Z,82.49
2019-01-05T10:50:55.563Z,81.87
2019-01-05T10:52:41.184Z,81.08
2019-01-05T10:54:20.060Z,80.66
2019-01-05T10:56:17.277Z,80.32
2019-01-05T10:57:52.674Z,79.64
2019-01-05T10:59:47.505Z,79.42
2019-01-05T11:01:35.131Z,79.62
2019-01-05T11:03:18.377Z,79.79
2019-01-05T11:04:42.810Z,80.08
2019-01-05T11:06:00.152Z,79.69
2019-01-05T11:07:25.984Z,79.46
2019-01-05T11:09:17.733Z,79.96
2019-01-05T11:10:58.660Z,80.35
2019-01-05T11:12:39.924Z,80.48
2019-01-05T11:14:17.395Z,80.69
2019-01-05T11:15:53.012Z,80.79
2019-01-05T11:17:07.954Z,80.67
2019-01-05T11:18:32.288Z,80.71
2019-01-05T11:20:02.197Z,80.85
2019-01-05T11:21:37.187Z,81.12
2019-01-05T11:23:17.137Z,81.17
2019-01-05T11:24:57.242Z,81.19
2019-01-05T11:26:27.139Z,80.49
2019-01-05T11:28:32.328Z,80.45
2019-01-05T11:30:35.987Z,80.29
2019-01-05T11:32:14.518Z,80.54
2019-01-05T11:33:45.376Z,81.21
2019-01-05T11:35:15.616Z,81.27
2019-01-05T11:36:58.173Z,81.30
2019-01-05T11:38:24.541Z,81.57
2019-01-05T11:39:38.977Z,81.29
2019-01-05T11:41:08.432Z,81.60
2019-01-05T11:42:53.235Z,81.71
2019-01-05T11:44:39.605Z,81.45
2019-01-05T11:45:58.929Z,81.65
2019-01-05T11:47:29.835Z,81.24
2019-01-05T11:48:51.012Z,81.07
2019-01-05T11:50:46.203Z,80.92
2019-01-05T11:52:08.721Z,81.06
2019-01-05T11:53:48.684Z,81.30
2019-01-05T11:55:13.084Z,81.47
2019-01-05T11:56:39.565Z,81.34
2019-01-05T11:58:00.676Z,81.60
2019-01-05T11:59:17.267Z,82.24
2019-01-05T12:01:01.354Z,82.40
2019-01-05T12:02:30.697Z,82.30
2019-01-05T12:04:14.984Z,81.87
2019-01-05T12:06:21.920Z,81.43
2019-01-05T12:08:04.795Z,81.35
2019-01-05T12:09:43.597Z,81.48
2019-01-05T12:11:44.884Z,81.93
2019-01-05T12:13:34.022Z,81.88
2019-01-05T12:15:06.639Z,82.23
2019-01-05T12:16:24.823Z,81.90
2019-01-05T12:17:49.643Z,81.95
2019-01-05T12:19:17.904Z,82.02
2019-01-05T12:20:43.010Z,82.02
2019-01-05T12:22:19.972Z,82.30
2019-01-05T12:23:52.550Z,82.02
2019-01-05T12:25:23.706Z,81.54
2019-01-05T12:27:04.739Z,80.49
2019-01-05T12:28:28.937Z,79.96
2019-01-05T12:30:26.793Z,79.15
2019-01-05T12:32:09.861Z,78.20
2019-01-05T12:33:38.774Z,77.14
2019-01-05T12:35:07.625Z,75.48
2019-01-05T12:36:27.158Z,75.04
2019-01-05T12:37:46.915Z,75.32
2019-01-05T12:39:05.106Z,75.57
2019-01-05T12:40:45.941Z,75.73
2019-01-05T12:42:34.357Z,74.22
2019-01-05T12:44:02.091Z,73.42
2019-01-05T12:45:54.329Z,73.30
2019-01-05T12:47:28.223Z,73.61
2019-01-05T12:49:03.527Z,73.55
2019-01-05T12:50:47.328Z,73.02
2019-01-05T12:52:36.087Z,72.96
2019-01-05T12:54:12.238Z,73.47
2019-01-05T12:55:56.702Z,74.22
2019-01-05T12:57:27.964Z,74.15
2019-01-05T12:59:33.087Z,74.24
2019-01-05T13:01:18.751Z,74.45
2019-01-05T13:03:09.529Z,73.92
2019-01-05T13:04:42.524Z,73.26
2019-01-05T13:06:21.205Z,72.79
2019-01-05T13:07:51.952Z,72.63
2019-01-05T13:09:23.266Z,72.41
2019-01-05T13:11:08.529Z,72.41
2019-01-05T13:12:42.882Z,73.37
2019-01-05T13:14:02.710Z,72.54
2019-01-05T13:15:44.624Z,72.58
2019-01-05T13:17:20.197Z,72.57
2019-01-05T13:18:53.341Z,72.75
2019-01-05T13:20:55.066Z,72.66
2019-01-05T13:22:46.594Z,72.55
2019-01-05T13:24:31.309Z,72.31
2019-01-05T13:26:03.322Z,72.67
2019-01-05T13:27:33.637Z,72.67
2019-01-05T13:28:57.871Z,72.31
2019-01-05T13:30:23.750Z,71.99
2019-01-05T13:32:02.386Z,71.79
2019-01-05T13:33:18.394Z,72.23
2019-01-05T13:34:32.574Z,72.59
2019-01-05T13:36:04.032Z,72.59
2019-01-05T13:37:48.730Z,72.09
2019-01-05T13:39:32.600Z,72.14
2019-01-05T13:40:56.678Z,71.94
2019-01-05T13:42:32.200Z,71.71
2019-01-05T13:44:14.103Z,71.84
2019-01-05T13:45:57.810Z,71.46
2019-01-05T13:47:24.574Z,72.01
2019-01-05T13:49:00.641Z,71.08
2019-01-05T13:50:36.570Z,71.47
2019-01-05T13:51:56.543Z,71.51
2019-01-05T13:53:35.104Z,71.62
2019-01-05T13:54:38.810Z,71.15
2019-01-05T13:55:50.104Z,71.19
2019-01-05T13:57:04.929Z,71.73
2019-01-05T13:58:11.787Z,71.53
2019-01-05T13:59:04.400Z,71.37
2019-01-05T13:59:57.721Z,71.23
2019-01-05T14:00:51.131Z,70.78
2019-01-05T14:01:45.791Z,71.31
2019-01-05T14:02:38.910Z,71.48
2019-01-05T14:03:32.010Z,71.28
2019-01-05T14:04:25.015Z,71.52
2019-01-05T14:05:18.210Z,71.56
2019-01-05T14:06:21.122Z,71.56
2019-01-05T14:07:14.333Z,71.38
2019-01-05T14:08:07.392Z,71.28
2019-01-05T14:09:14.272Z,71.13
2019-01-05T14:10:17.596Z,71.05
2019-01-05T14:11:10.440Z,71.07
2019-01-05T14:12:04.896Z,71.21
2019-01-05T14:13:05.379Z,71.48
2019-01-05T14:13:58.483Z,71.51
2019-01-05T14:15:11.020Z,71.27
2019-01-05T14:16:06.063Z,71.27
2019-01-05T14:17:06.814Z,70.95
2019-01-05T14:18:16.854Z,70.95
2019-01-05T14:19:10.076Z,71.68
2019-01-05T14:20:11.890Z,71.73
2019-01-05T14:21:03.040Z,71.05
2019-01-05T14:22:06.657Z,71.50
2019-01-05T14:23:19.700Z,70.92
2019-01-05T14:24:12.769Z,70.87
2019-01-05T14:25:05.957Z,70.31
2019-01-05T14:26:09.311Z,70.49
2019-01-05T14:27:02.368Z,70.63
2019-01-05T14:27:55.317Z,70.73
2019-01-05T14:28:48.451Z,70.73
2019-01-05T14:29:57.763Z,70.73
2019-01-05T14:30:52.491Z,70.86
2019-01-05T14:31:53.375Z,71.07
2019-01-05T14:32:43.038Z,70.98
2019-01-05T14:33:36.125Z,70.86
2019-01-05T14:34:29.249Z,71.12
2019-01-05T14:35:23.029Z,70.69
2019-01-05T14:36:18.999Z,70.29
2019-01-05T14:37:12.454Z,70.29
2019-01-05T14:38:05.966Z,70.91
2019-01-05T14:39:16.278Z,71.30
2019-01-05T14:40:07.063Z,70.94
2019-01-05T14:41:00.239Z,71.08
2019-01-05T14:41:53.463Z,70.95
2019-01-05T14:42:54.016Z,71.08
2019-01-05T14:43:48.437Z,71.34
2019-01-05T14:44:41.256Z,70.95
2019-01-05T14:45:44.885Z,70.95
2019-01-05T14:46:50.094Z,70.72
2019-01-05T14:47:53.473Z,71.35
2019-01-05T14:48:46.404Z,71.42
2019-01-05T14:49:43.707Z,71.29
2019-01-05T14:50:40.838Z,70.89
2019-01-05T14:51:35.532Z,70.89
2019-01-05T14:52:38.546Z,71.07
2019-01-05T14:53:39.027Z,71.07
2019-01-05T14:54:32.157Z,71.53
2019-01-05T14:55:32.547Z,71.50
2019-01-05T14:56:45.445Z,71.42
2019-01-05T14:57:49.039Z,71.32
2019-01-05T14:58:41.732Z,71.17
2019-01-05T14:59:36.125Z,70.65
2019-01-05T15:00:35.157Z,70.71
2019-01-05T15:01:41.325Z,71.14
2019-01-05T15:02:38.026Z,71.70
2019-01-05T15:03:32.402Z,71.70
2019-01-05T15:04:35.215Z,71.12
2019-01-05T15:05:28.179Z,71.24
2019-01-05T15:06:25.382Z,70.84
2019-01-05T15:07:37.821Z,71.46
2019-01-05T15:08:41.331Z,71.72
2019-01-05T15:09:34.666Z,71.45
2019-01-05T15:10:32.883Z,71.55
2019-01-05T15:11:25.784Z,71.64
2019-01-05T15:12:32.130Z,72.02
2019-01-05T15:13:18.368Z,72.04
2019-01-05T15:14:10.804Z,72.17
2019-01-05T15:15:08.447Z,72.14
2019-01-05T15:16:09.552Z,72.32
2019-01-05T15:17:07.091Z,72.53
2019-01-05T15:17:59.971Z,72.52
2019-01-05T15:18:53.069Z,72.43
2019-01-05T15:19:55.083Z,72.28
2019-01-05T15:20:49.461Z,72.31
2019-01-05T15:21:42.691Z,72.16
2019-01-05T15:22:35.776Z,72.20
2019-01-05T15:23:36.237Z,72.40
2019-01-05T15:24:30.636Z,72.25
2019-01-05T15:25:23.509Z,71.91
2019-01-05T15:26:16.724Z,72.32
2019-01-05T15:27:10.186Z,72.38
2019-01-05T15:28:03.279Z,72.13
2019-01-05T15:29:09.555Z,72.09
2019-01-05T15:30:15.491Z,72.15
2019-01-05T15:31:10.355Z,72.35
2019-01-05T15:32:19.925Z,72.17
2019-01-05T15:33:29.383Z,72.31
2019-01-05T15:34:36.254Z,72.84
2019-01-05T15:35:30.453Z,72.95
2019-01-05T15:36:20.712Z,73.18
2019-01-05T15:37:30.742Z,72.44
2019-01-05T15:38:33.389Z,72.41
2019-01-05T15:39:37.894Z,72.96
2019-01-05T15:40:33.150Z,73.02
2019-01-05T15:41:34.071Z,72.93
2019-01-05T15:42:44.755Z,72.89
2019-01-05T15:43:37.720Z,72.89
2019-01-05T15:44:39.203Z,73.08
2019-01-05T15:45:32.197Z,72.87
2019-01-05T15:46:42.696Z,72.48
2019-01-05T15:47:40.653Z,72.39
2019-01-05T15:48:40.367Z,72.83
2019-01-05T15:49:37.511Z,73.16
2019-01-05T15:50:41.308Z,72.98
2019-01-05T15:51:34.415Z,73.26
2019-01-05T15:52:27.799Z,72.92
2019-01-05T15:53:31.474Z,72.69
2019-01-05T15:54:24.986Z,72.85
2019-01-05T15:55:19.623Z,72.90
2019-01-05T15:56:29.759Z,72.84
2019-01-05T15:57:24.212Z,72.84
2019-01-05T15:58:34.226Z,73.04
2019-01-05T15:59:27.063Z,73.26
2019-01-05T16:00:19.948Z,73.27
2019-01-05T16:01:20.441Z,73.41
2019-01-05T16:02:12.075Z,73.52
2019-01-05T16:03:24.834Z,73.13
2019-01-05T16:04:17.800Z,73.00
2019-01-05T16:05:21.019Z,72.85
2019-01-05T16:06:21.068Z,73.24
2019-01-05T16:07:24.598Z,73.25
2019-01-05T16:08:31.054Z,73.01
2019-01-05T16:09:25.726Z,72.88
2019-01-05T16:10:26.265Z,73.23
2019-01-05T16:11:19.779Z,72.80
2019-01-05T16:12:12.368Z,73.05
2019-01-05T16:13:16.063Z,73.41
2019-01-05T16:14:22.684Z,73.34
2019-01-05T16:15:15.841Z,73.46
2019-01-05T16:16:26.007Z,73.58
2019-01-05T16:17:32.633Z,73.10
2019-01-05T16:18:21.317Z,73.07
2019-01-05T16:19:27.897Z,72.82
2019-01-05T16:20:21.559Z,72.77
2019-01-05T16:21:21.835Z,72.67
2019-01-05T16:22:31.215Z,72.86
2019-01-05T16:23:37.899Z,72.78
2019-01-05T16:24:31.178Z,72.71
2019-01-05T16:25:31.152Z,72.87
2019-01-05T16:26:24.237Z,73.17
2019-01-05T16:27:17.136Z,73.37
2019-01-05T16:28:09.177Z,73.15
2019-01-05T16:29:02.983Z,73.22
2019-01-05T16:29:54.058Z,73.48
2019-01-05T16:30:41.339Z,73.69
2019-01-05T16:31:34.290Z,73.67
2019-01-05T16:32:31.583Z,73.71
2019-01-05T16:33:28.975Z,73.77
2019-01-05T16:34:21.607Z,73.60
2019-01-05T16:35:15.980Z,73.52
2019-01-05T16:36:10.479Z,73.56
2019-01-05T16:36:58.075Z,73.09
2019-01-05T16:37:47.959Z,73.09
2019-01-05T16:38:52.183Z,73.78
2019-01-05T16:39:45.232Z,73.74
2019-01-05T16:40:51.782Z,73.69
2019-01-05T16:41:45.124Z,73.69
2019-01-05T16:42:38.051Z,73.63
2019-01-05T16:43:43.025Z,73.17
2019-01-05T16:44:44.084Z,73.17
2019-01-05T16:45:36.953Z,73.47
2019-01-05T16:46:30.131Z,73.29
2019-01-05T16:47:27.351Z,73.40
2019-01-05T16:48:27.627Z,73.30
2019-01-05T16:49:27.485Z,73.38
2019-01-05T16:50:20.477Z,73.54
2019-01-05T16:51:30.179Z,73.47
2019-01-05T16:52:23.504Z,73.55
2019-01-05T16:53:20.137Z,73.36
2019-01-05T16:54:18.395Z,73.22
2019-01-05T16:55:25.255Z,73.34
2019-01-05T16:56:18.822Z,73.68
2019-01-05T16:57:08.185Z,73.47
2019-01-05T16:58:03.022Z,73.57
2019-01-05T16:59:09.588Z,73.49
2019-01-05T17:00:15.814Z,73.21
2019-01-05T17:01:08.639Z,72.85
2019-01-05T17:02:06.184Z,72.90
2019-01-05T17:03:07.794Z,73.06
2019-01-05T17:04:14.390Z,73.11
2019-01-05T17:05:10.589Z,73.29
2019-01-05T17:06:16.811Z,73.15
2019-01-05T17:07:09.667Z,73.02
2019-01-05T17:08:03.022Z,73.22
2019-01-05T17:08:57.530Z,73.51